Main page
METAR-TAF:

METAR-TAF

Airports :

Ljungbyheds flygplats

Ljungbyhed, Sweden

latitude: 56-04N, longitude: 013-12E, elevation: 43 m

Current weather observation

The report was made 37 minutes ago, at 22:20 UTC
Wind 11 kt from the East/Southeast
Temperature 8°C
Humidity 100%
Pressure 1013 hPa
Visibility: 9000 m
mist

METAR: ESTL 212220Z AUTO 11011KT 9000 BR FEW006/// OVC008/// 08/08 Q1013

Time: 23:57 (22:57 UTC)

Forecast

The report was made 11 hours and 46 minutes ago, at 11:11 UTC
Forecast valid from 21 at 12 UTC to 21 at 16 UTC
Wind 8 kt from the East/Southeast
Visibility: 6000 m
Broken clouds at a height of 800 ft
Temporary
from 21 at 12 UTC to 21 at 16 UTC
Visibility: 2000 m
Broken clouds at a height of 400 ft
light rain, drizzle, mist

TAF: ESTL 211111Z 2112/2116 11008KT 6000 BKN008 TEMPO 2112/2116 2000 -RADZ BR BKN004

Weather observations and forecasts of more than 4000 airports (METAR and TAF reports).

The available stations are represented by yellow and red dots on the map.

Hover mouse over dot to see the name of the station.

Then click to see weather observations and forecasts.

To change the map : click on the green buttons with a black cross to zoom in, on the green button with a dash to zoom out, or on the green arrows for adjacent maps.


METAR-TAF: